Terminal Aerodrome Forecast
Issued by NWS

Home | Current Version | Previous Version | Text Only | Print | Product List | Glossary Off
Versions: 1 2 3 4 5 6 7 8 9 10 11 12 13 14 15 16 17 18 19 20 21 22

330
FTUS43 KICT 291612 AAC
TAFRSL
TAF AMD
KRSL 291612Z 2916/3012 VRB05KT P6SM SCT015
      TEMPO 2916/2917 BKN015
     FM291700 VRB06KT P6SM BKN025
     FM291900 07007KT P6SM BKN035
     FM292200 12011KT P6SM SCT040 BKN100=

USA.gov is the U.S. government's official web portal to all federal, state and local government web resources and services.